sensor_id;sensor_type;location;lat;lon;timestamp;P1;durP1;ratioP1;P2;durP2;ratioP2
75062;SDS011;63981;51.052;13.754;2023-04-06T00:01:39;5.18;;;3.42;;
75062;SDS011;63981;51.052;13.754;2023-04-06T00:04:05;6.03;;;3.78;;
75062;SDS011;63981;51.052;13.754;2023-04-06T00:06:31;4.88;;;3.65;;
75062;SDS011;63981;51.052;13.754;2023-04-06T00:08:58;7.18;;;4.07;;
75062;SDS011;63981;51.052;13.754;2023-04-06T00:11:24;6.35;;;4.07;;
75062;SDS011;63981;51.052;13.754;2023-04-06T00:13:50;6.93;;;4.05;;
75062;SDS011;63981;51.052;13.754;2023-04-06T00:16:16;5.53;;;3.70;;
75062;SDS011;63981;51.052;13.754;2023-04-06T00:18:42;6.50;;;3.60;;
75062;SDS011;63981;51.052;13.754;2023-04-06T00:21:11;6.18;;;3.40;;
75062;SDS011;63981;51.052;13.754;2023-04-06T00:23:38;5.82;;;3.53;;
75062;SDS011;63981;51.052;13.754;2023-04-06T00:26:04;6.35;;;3.95;;
75062;SDS011;63981;51.052;13.754;2023-04-06T00:28:30;7.78;;;4.00;;
75062;SDS011;63981;51.052;13.754;2023-04-06T00:30:56;4.63;;;3.53;;
75062;SDS011;63981;51.052;13.754;2023-04-06T00:33:22;6.28;;;4.10;;
75062;SDS011;63981;51.052;13.754;2023-04-06T00:35:48;5.45;;;3.15;;
75062;SDS011;63981;51.052;13.754;2023-04-06T00:38:15;5.90;;;3.75;;
75062;SDS011;63981;51.052;13.754;2023-04-06T00:40:41;6.43;;;4.57;;
75062;SDS011;63981;51.052;13.754;2023-04-06T00:43:09;5.28;;;3.45;;
75062;SDS011;63981;51.052;13.754;2023-04-06T00:45:40;6.68;;;3.83;;
75062;SDS011;63981;51.052;13.754;2023-04-06T00:48:07;6.97;;;4.15;;
75062;SDS011;63981;51.052;13.754;2023-04-06T00:50:33;5.50;;;3.33;;
75062;SDS011;63981;51.052;13.754;2023-04-06T00:52:59;6.70;;;4.47;;
75062;SDS011;63981;51.052;13.754;2023-04-06T00:55:29;4.45;;;3.40;;
75062;SDS011;63981;51.052;13.754;2023-04-06T00:57:57;5.53;;;3.63;;
75062;SDS011;63981;51.052;13.754;2023-04-06T01:00:25;7.95;;;4.47;;
75062;SDS011;63981;51.052;13.754;2023-04-06T01:02:55;6.32;;;3.80;;
75062;SDS011;63981;51.052;13.754;2023-04-06T01:05:27;6.45;;;3.72;;
75062;SDS011;63981;51.052;13.754;2023-04-06T01:07:56;6.88;;;3.88;;
75062;SDS011;63981;51.052;13.754;2023-04-06T01:10:26;5.65;;;3.85;;
75062;SDS011;63981;51.052;13.754;2023-04-06T01:13:02;6.82;;;3.47;;
75062;SDS011;63981;51.052;13.754;2023-04-06T01:15:58;6.65;;;3.85;;
75062;SDS011;63981;51.052;13.754;2023-04-06T01:18:31;6.50;;;3.97;;
75062;SDS011;63981;51.052;13.754;2023-04-06T01:21:12;6.47;;;3.78;;
75062;SDS011;63981;51.052;13.754;2023-04-06T01:23:49;6.35;;;4.43;;
75062;SDS011;63981;51.052;13.754;2023-04-06T01:26:22;5.30;;;3.63;;
75062;SDS011;63981;51.052;13.754;2023-04-06T01:28:49;8.50;;;3.78;;
75062;SDS011;63981;51.052;13.754;2023-04-06T01:31:26;6.20;;;4.45;;
75062;SDS011;63981;51.052;13.754;2023-04-06T01:33:53;6.38;;;4.10;;
75062;SDS011;63981;51.052;13.754;2023-04-06T01:36:22;6.32;;;3.70;;
75062;SDS011;63981;51.052;13.754;2023-04-06T01:38:55;9.70;;;4.45;;
75062;SDS011;63981;51.052;13.754;2023-04-06T01:41:28;6.03;;;3.17;;
75062;SDS011;63981;51.052;13.754;2023-04-06T01:43:54;5.97;;;3.40;;
75062;SDS011;63981;51.052;13.754;2023-04-06T01:46:23;6.10;;;3.53;;
75062;SDS011;63981;51.052;13.754;2023-04-06T01:48:50;5.88;;;3.42;;
75062;SDS011;63981;51.052;13.754;2023-04-06T01:51:28;4.40;;;2.90;;
75062;SDS011;63981;51.052;13.754;2023-04-06T01:53:57;6.85;;;4.05;;
75062;SDS011;63981;51.052;13.754;2023-04-06T01:56:32;6.45;;;3.30;;
75062;SDS011;63981;51.052;13.754;2023-04-06T01:59:05;8.82;;;4.07;;
75062;SDS011;63981;51.052;13.754;2023-04-06T02:01:37;7.13;;;4.38;;
75062;SDS011;63981;51.052;13.754;2023-04-06T02:04:02;5.88;;;3.10;;
75062;SDS011;63981;51.052;13.754;2023-04-06T02:06:28;5.32;;;3.75;;
75062;SDS011;63981;51.052;13.754;2023-04-06T02:08:55;7.53;;;3.10;;
75062;SDS011;63981;51.052;13.754;2023-04-06T02:11:21;6.55;;;3.45;;
75062;SDS011;63981;51.052;13.754;2023-04-06T02:13:51;4.72;;;3.53;;
75062;SDS011;63981;51.052;13.754;2023-04-06T02:16:17;4.88;;;3.22;;
75062;SDS011;63981;51.052;13.754;2023-04-06T02:18:44;5.43;;;3.03;;
75062;SDS011;63981;51.052;13.754;2023-04-06T02:21:10;5.10;;;3.60;;
75062;SDS011;63981;51.052;13.754;2023-04-06T02:23:36;6.45;;;4.00;;
75062;SDS011;63981;51.052;13.754;2023-04-06T02:26:02;7.82;;;4.38;;
75062;SDS011;63981;51.052;13.754;2023-04-06T02:28:28;7.00;;;4.38;;
75062;SDS011;63981;51.052;13.754;2023-04-06T02:30:53;7.05;;;3.33;;
75062;SDS011;63981;51.052;13.754;2023-04-06T02:33:24;8.85;;;3.92;;
75062;SDS011;63981;51.052;13.754;2023-04-06T02:35:50;10.43;;;4.65;;
75062;SDS011;63981;51.052;13.754;2023-04-06T02:38:15;5.53;;;3.53;;
75062;SDS011;63981;51.052;13.754;2023-04-06T02:40:41;8.20;;;4.20;;
75062;SDS011;63981;51.052;13.754;2023-04-06T02:43:18;6.68;;;4.00;;
75062;SDS011;63981;51.052;13.754;2023-04-06T02:45:45;5.95;;;2.97;;
75062;SDS011;63981;51.052;13.754;2023-04-06T02:48:11;6.10;;;3.60;;
75062;SDS011;63981;51.052;13.754;2023-04-06T02:50:37;6.25;;;3.90;;
75062;SDS011;63981;51.052;13.754;2023-04-06T02:53:05;8.35;;;4.60;;
75062;SDS011;63981;51.052;13.754;2023-04-06T02:55:32;6.70;;;3.95;;
75062;SDS011;63981;51.052;13.754;2023-04-06T02:57:58;6.82;;;4.57;;
75062;SDS011;63981;51.052;13.754;2023-04-06T03:00:29;6.55;;;4.63;;
75062;SDS011;63981;51.052;13.754;2023-04-06T03:02:54;6.43;;;5.03;;
75062;SDS011;63981;51.052;13.754;2023-04-06T03:05:21;6.38;;;4.40;;
75062;SDS011;63981;51.052;13.754;2023-04-06T03:07:47;8.18;;;3.97;;
75062;SDS011;63981;51.052;13.754;2023-04-06T03:10:27;6.53;;;3.30;;
75062;SDS011;63981;51.052;13.754;2023-04-06T03:12:53;6.80;;;4.07;;
75062;SDS011;63981;51.052;13.754;2023-04-06T03:15:29;5.32;;;3.45;;
75062;SDS011;63981;51.052;13.754;2023-04-06T03:18:05;6.25;;;3.28;;
75062;SDS011;63981;51.052;13.754;2023-04-06T03:20:36;9.25;;;3.42;;
75062;SDS011;63981;51.052;13.754;2023-04-06T03:23:02;7.45;;;4.70;;
75062;SDS011;63981;51.052;13.754;2023-04-06T03:25:32;5.95;;;4.10;;
75062;SDS011;63981;51.052;13.754;2023-04-06T03:28:02;6.95;;;3.45;;
75062;SDS011;63981;51.052;13.754;2023-04-06T03:30:30;7.22;;;3.95;;
75062;SDS011;63981;51.052;13.754;2023-04-06T03:32:57;5.18;;;3.05;;
75062;SDS011;63981;51.052;13.754;2023-04-06T03:35:26;6.32;;;3.90;;
75062;SDS011;63981;51.052;13.754;2023-04-06T03:37:51;6.65;;;4.43;;
75062;SDS011;63981;51.052;13.754;2023-04-06T03:40:17;8.73;;;4.60;;
75062;SDS011;63981;51.052;13.754;2023-04-06T03:42:43;5.95;;;3.38;;
75062;SDS011;63981;51.052;13.754;2023-04-06T03:45:12;4.20;;;3.80;;
75062;SDS011;63981;51.052;13.754;2023-04-06T03:47:45;6.10;;;4.50;;
75062;SDS011;63981;51.052;13.754;2023-04-06T03:50:11;5.10;;;3.28;;
75062;SDS011;63981;51.052;13.754;2023-04-06T03:52:37;6.97;;;3.72;;
75062;SDS011;63981;51.052;13.754;2023-04-06T03:55:03;6.78;;;3.72;;
75062;SDS011;63981;51.052;13.754;2023-04-06T03:57:29;6.85;;;4.00;;
75062;SDS011;63981;51.052;13.754;2023-04-06T03:59:56;6.03;;;4.10;;
75062;SDS011;63981;51.052;13.754;2023-04-06T04:02:25;5.68;;;4.28;;
75062;SDS011;63981;51.052;13.754;2023-04-06T04:04:51;6.65;;;3.78;;
75062;SDS011;63981;51.052;13.754;2023-04-06T04:07:17;7.72;;;5.07;;
75062;SDS011;63981;51.052;13.754;2023-04-06T04:09:43;5.78;;;3.70;;
75062;SDS011;63981;51.052;13.754;2023-04-06T04:12:10;5.53;;;3.55;;
75062;SDS011;63981;51.052;13.754;2023-04-06T04:14:35;6.82;;;3.78;;
75062;SDS011;63981;51.052;13.754;2023-04-06T04:17:01;6.75;;;4.03;;
75062;SDS011;63981;51.052;13.754;2023-04-06T04:19:27;4.40;;;3.25;;
75062;SDS011;63981;51.052;13.754;2023-04-06T04:21:53;6.45;;;4.72;;
75062;SDS011;63981;51.052;13.754;2023-04-06T04:24:27;5.97;;;4.40;;
75062;SDS011;63981;51.052;13.754;2023-04-06T04:26:54;6.32;;;3.70;;
75062;SDS011;63981;51.052;13.754;2023-04-06T04:29:22;6.13;;;3.97;;
75062;SDS011;63981;51.052;13.754;2023-04-06T04:31:49;6.18;;;4.28;;
75062;SDS011;63981;51.052;13.754;2023-04-06T04:34:16;6.93;;;4.50;;
75062;SDS011;63981;51.052;13.754;2023-04-06T04:36:44;7.47;;;4.25;;
75062;SDS011;63981;51.052;13.754;2023-04-06T04:39:15;8.18;;;5.10;;
75062;SDS011;63981;51.052;13.754;2023-04-06T04:41:47;6.80;;;3.75;;
75062;SDS011;63981;51.052;13.754;2023-04-06T04:44:12;5.97;;;4.45;;
75062;SDS011;63981;51.052;13.754;2023-04-06T04:46:38;7.63;;;4.78;;
75062;SDS011;63981;51.052;13.754;2023-04-06T04:49:05;5.32;;;3.78;;
75062;SDS011;63981;51.052;13.754;2023-04-06T04:51:31;6.57;;;3.85;;
75062;SDS011;63981;51.052;13.754;2023-04-06T04:54:24;7.90;;;4.57;;
75062;SDS011;63981;51.052;13.754;2023-04-06T04:56:50;11.57;;;5.05;;
75062;SDS011;63981;51.052;13.754;2023-04-06T04:59:38;8.32;;;4.47;;
75062;SDS011;63981;51.052;13.754;2023-04-06T05:02:12;9.05;;;5.22;;
75062;SDS011;63981;51.052;13.754;2023-04-06T05:04:55;6.63;;;4.25;;
75062;SDS011;63981;51.052;13.754;2023-04-06T05:07:24;5.63;;;3.17;;
75062;SDS011;63981;51.052;13.754;2023-04-06T05:09:52;8.30;;;4.70;;
75062;SDS011;63981;51.052;13.754;2023-04-06T05:12:19;8.85;;;4.70;;
75062;SDS011;63981;51.052;13.754;2023-04-06T05:14:54;6.05;;;4.38;;
75062;SDS011;63981;51.052;13.754;2023-04-06T05:17:22;7.60;;;3.72;;
75062;SDS011;63981;51.052;13.754;2023-04-06T05:19:49;9.38;;;5.72;;
75062;SDS011;63981;51.052;13.754;2023-04-06T05:22:21;9.65;;;5.93;;
75062;SDS011;63981;51.052;13.754;2023-04-06T05:24:56;8.35;;;5.10;;
75062;SDS011;63981;51.052;13.754;2023-04-06T05:27:22;8.23;;;5.15;;
75062;SDS011;63981;51.052;13.754;2023-04-06T05:29:48;7.10;;;5.30;;
75062;SDS011;63981;51.052;13.754;2023-04-06T05:32:15;7.95;;;4.47;;
75062;SDS011;63981;51.052;13.754;2023-04-06T05:34:42;6.72;;;4.05;;
75062;SDS011;63981;51.052;13.754;2023-04-06T05:37:08;7.70;;;4.78;;
75062;SDS011;63981;51.052;13.754;2023-04-06T05:39:35;8.48;;;4.38;;
75062;SDS011;63981;51.052;13.754;2023-04-06T05:42:03;10.55;;;4.97;;
75062;SDS011;63981;51.052;13.754;2023-04-06T05:44:43;7.13;;;4.70;;
75062;SDS011;63981;51.052;13.754;2023-04-06T05:47:12;7.22;;;5.65;;
75062;SDS011;63981;51.052;13.754;2023-04-06T05:49:41;6.60;;;4.95;;
75062;SDS011;63981;51.052;13.754;2023-04-06T05:52:12;6.78;;;4.32;;
75062;SDS011;63981;51.052;13.754;2023-04-06T05:54:42;8.13;;;4.78;;
75062;SDS011;63981;51.052;13.754;2023-04-06T05:57:08;8.07;;;5.03;;
75062;SDS011;63981;51.052;13.754;2023-04-06T05:59:34;7.50;;;4.63;;
75062;SDS011;63981;51.052;13.754;2023-04-06T06:02:00;8.48;;;4.78;;
75062;SDS011;63981;51.052;13.754;2023-04-06T06:04:30;10.75;;;6.47;;
75062;SDS011;63981;51.052;13.754;2023-04-06T06:06:56;11.13;;;5.28;;
75062;SDS011;63981;51.052;13.754;2023-04-06T06:09:44;8.30;;;4.90;;
75062;SDS011;63981;51.052;13.754;2023-04-06T06:12:21;10.43;;;6.65;;
75062;SDS011;63981;51.052;13.754;2023-04-06T06:14:49;8.48;;;5.32;;
75062;SDS011;63981;51.052;13.754;2023-04-06T06:17:15;8.88;;;6.10;;
75062;SDS011;63981;51.052;13.754;2023-04-06T06:19:44;9.65;;;4.72;;
75062;SDS011;63981;51.052;13.754;2023-04-06T06:22:09;9.88;;;5.20;;
75062;SDS011;63981;51.052;13.754;2023-04-06T06:24:39;9.10;;;5.72;;
75062;SDS011;63981;51.052;13.754;2023-04-06T06:27:05;10.73;;;5.05;;
75062;SDS011;63981;51.052;13.754;2023-04-06T06:29:33;8.48;;;5.50;;
75062;SDS011;63981;51.052;13.754;2023-04-06T06:31:59;8.13;;;5.10;;
75062;SDS011;63981;51.052;13.754;2023-04-06T06:34:26;8.68;;;5.38;;
75062;SDS011;63981;51.052;13.754;2023-04-06T06:36:55;7.38;;;5.68;;
75062;SDS011;63981;51.052;13.754;2023-04-06T06:39:21;8.90;;;5.18;;
75062;SDS011;63981;51.052;13.754;2023-04-06T06:41:49;9.77;;;4.90;;
75062;SDS011;63981;51.052;13.754;2023-04-06T06:44:15;7.72;;;5.30;;
75062;SDS011;63981;51.052;13.754;2023-04-06T06:46:42;8.00;;;5.38;;
75062;SDS011;63981;51.052;13.754;2023-04-06T06:49:10;8.25;;;5.55;;
75062;SDS011;63981;51.052;13.754;2023-04-06T06:51:37;10.00;;;5.22;;
75062;SDS011;63981;51.052;13.754;2023-04-06T06:54:03;9.70;;;6.13;;
75062;SDS011;63981;51.052;13.754;2023-04-06T06:56:29;8.43;;;5.13;;
75062;SDS011;63981;51.052;13.754;2023-04-06T06:58:55;9.27;;;5.43;;
75062;SDS011;63981;51.052;13.754;2023-04-06T07:01:21;11.10;;;5.65;;
75062;SDS011;63981;51.052;13.754;2023-04-06T07:03:47;9.40;;;5.43;;
75062;SDS011;63981;51.052;13.754;2023-04-06T07:06:13;9.25;;;5.50;;
75062;SDS011;63981;51.052;13.754;2023-04-06T07:08:39;6.03;;;4.22;;
75062;SDS011;63981;51.052;13.754;2023-04-06T07:11:05;10.23;;;5.18;;
75062;SDS011;63981;51.052;13.754;2023-04-06T07:13:31;7.80;;;5.00;;
75062;SDS011;63981;51.052;13.754;2023-04-06T07:15:58;9.45;;;4.45;;
75062;SDS011;63981;51.052;13.754;2023-04-06T07:18:24;7.70;;;4.60;;
75062;SDS011;63981;51.052;13.754;2023-04-06T07:20:51;8.85;;;5.00;;
75062;SDS011;63981;51.052;13.754;2023-04-06T07:23:17;7.00;;;4.15;;
75062;SDS011;63981;51.052;13.754;2023-04-06T07:25:44;5.72;;;4.35;;
75062;SDS011;63981;51.052;13.754;2023-04-06T07:28:10;8.85;;;4.80;;
75062;SDS011;63981;51.052;13.754;2023-04-06T07:30:36;6.82;;;4.72;;
75062;SDS011;63981;51.052;13.754;2023-04-06T07:33:03;8.65;;;4.63;;
75062;SDS011;63981;51.052;13.754;2023-04-06T07:35:29;6.57;;;4.07;;
75062;SDS011;63981;51.052;13.754;2023-04-06T07:37:56;6.10;;;4.22;;
75062;SDS011;63981;51.052;13.754;2023-04-06T07:40:23;6.03;;;4.18;;
75062;SDS011;63981;51.052;13.754;2023-04-06T07:42:49;6.25;;;4.07;;
75062;SDS011;63981;51.052;13.754;2023-04-06T07:45:15;6.57;;;3.88;;
75062;SDS011;63981;51.052;13.754;2023-04-06T07:47:42;8.13;;;5.00;;
75062;SDS011;63981;51.052;13.754;2023-04-06T07:50:12;10.50;;;4.95;;
75062;SDS011;63981;51.052;13.754;2023-04-06T07:52:38;6.97;;;4.38;;
75062;SDS011;63981;51.052;13.754;2023-04-06T07:55:05;8.10;;;4.22;;
75062;SDS011;63981;51.052;13.754;2023-04-06T07:57:31;6.18;;;4.53;;
75062;SDS011;63981;51.052;13.754;2023-04-06T07:59:58;5.72;;;3.97;;
75062;SDS011;63981;51.052;13.754;2023-04-06T08:02:23;6.15;;;4.10;;
75062;SDS011;63981;51.052;13.754;2023-04-06T08:04:49;6.57;;;4.25;;
75062;SDS011;63981;51.052;13.754;2023-04-06T08:07:15;5.10;;;3.78;;
75062;SDS011;63981;51.052;13.754;2023-04-06T08:09:41;7.40;;;3.50;;
75062;SDS011;63981;51.052;13.754;2023-04-06T08:12:06;4.15;;;3.58;;
75062;SDS011;63981;51.052;13.754;2023-04-06T08:14:32;5.85;;;4.75;;
75062;SDS011;63981;51.052;13.754;2023-04-06T08:16:59;6.75;;;4.15;;
75062;SDS011;63981;51.052;13.754;2023-04-06T08:19:25;7.97;;;4.10;;
75062;SDS011;63981;51.052;13.754;2023-04-06T08:21:50;8.90;;;4.57;;
75062;SDS011;63981;51.052;13.754;2023-04-06T08:24:16;5.45;;;3.83;;
75062;SDS011;63981;51.052;13.754;2023-04-06T08:26:42;7.57;;;4.22;;
75062;SDS011;63981;51.052;13.754;2023-04-06T08:29:08;5.00;;;4.28;;
75062;SDS011;63981;51.052;13.754;2023-04-06T08:31:34;5.95;;;4.20;;
75062;SDS011;63981;51.052;13.754;2023-04-06T08:34:00;7.57;;;4.72;;
75062;SDS011;63981;51.052;13.754;2023-04-06T08:36:27;5.60;;;3.47;;
75062;SDS011;63981;51.052;13.754;2023-04-06T08:38:53;5.63;;;4.28;;
75062;SDS011;63981;51.052;13.754;2023-04-06T08:41:19;5.95;;;3.88;;
75062;SDS011;63981;51.052;13.754;2023-04-06T08:44:00;5.85;;;3.72;;
75062;SDS011;63981;51.052;13.754;2023-04-06T08:46:28;5.35;;;3.58;;
75062;SDS011;63981;51.052;13.754;2023-04-06T08:48:56;5.70;;;3.85;;
75062;SDS011;63981;51.052;13.754;2023-04-06T08:51:23;4.10;;;3.35;;
75062;SDS011;63981;51.052;13.754;2023-04-06T08:53:54;3.47;;;2.53;;
75062;SDS011;63981;51.052;13.754;2023-04-06T08:56:21;3.13;;;2.35;;
75062;SDS011;63981;51.052;13.754;2023-04-06T08:58:48;3.47;;;3.05;;
75062;SDS011;63981;51.052;13.754;2023-04-06T09:01:17;5.30;;;3.20;;
75062;SDS011;63981;51.052;13.754;2023-04-06T09:06:10;4.35;;;2.88;;
75062;SDS011;63981;51.052;13.754;2023-04-06T09:08:38;3.80;;;3.00;;
75062;SDS011;63981;51.052;13.754;2023-04-06T09:11:05;3.97;;;3.08;;
75062;SDS011;63981;51.052;13.754;2023-04-06T09:13:31;4.40;;;3.15;;
75062;SDS011;63981;51.052;13.754;2023-04-06T09:16:09;3.72;;;2.60;;
75062;SDS011;63981;51.052;13.754;2023-04-06T09:18:34;5.68;;;3.50;;
75062;SDS011;63981;51.052;13.754;2023-04-06T09:21:01;3.28;;;2.67;;
75062;SDS011;63981;51.052;13.754;2023-04-06T09:23:28;4.68;;;3.33;;
75062;SDS011;63981;51.052;13.754;2023-04-06T09:26:11;4.03;;;3.00;;
75062;SDS011;63981;51.052;13.754;2023-04-06T09:28:47;4.03;;;2.80;;
75062;SDS011;63981;51.052;13.754;2023-04-06T09:31:17;4.43;;;3.22;;
75062;SDS011;63981;51.052;13.754;2023-04-06T09:33:50;4.50;;;3.22;;
75062;SDS011;63981;51.052;13.754;2023-04-06T09:36:17;3.88;;;2.83;;
75062;SDS011;63981;51.052;13.754;2023-04-06T09:38:54;4.57;;;3.00;;
75062;SDS011;63981;51.052;13.754;2023-04-06T09:41:24;3.60;;;3.05;;
75062;SDS011;63981;51.052;13.754;2023-04-06T09:44:05;5.50;;;3.30;;
75062;SDS011;63981;51.052;13.754;2023-04-06T09:46:34;6.53;;;3.72;;
75062;SDS011;63981;51.052;13.754;2023-04-06T09:49:05;6.15;;;4.28;;
75062;SDS011;63981;51.052;13.754;2023-04-06T09:51:36;4.28;;;2.92;;
75062;SDS011;63981;51.052;13.754;2023-04-06T09:54:03;4.40;;;3.22;;
75062;SDS011;63981;51.052;13.754;2023-04-06T09:56:46;3.22;;;2.25;;
75062;SDS011;63981;51.052;13.754;2023-04-06T10:02:04;4.78;;;3.00;;
75062;SDS011;63981;51.052;13.754;2023-04-06T10:04:39;4.10;;;3.20;;
75062;SDS011;63981;51.052;13.754;2023-04-06T10:07:11;5.13;;;3.40;;
75062;SDS011;63981;51.052;13.754;2023-04-06T10:09:38;4.60;;;3.20;;
75062;SDS011;63981;51.052;13.754;2023-04-06T10:12:05;2.53;;;2.33;;
75062;SDS011;63981;51.052;13.754;2023-04-06T10:14:34;3.63;;;2.83;;
75062;SDS011;63981;51.052;13.754;2023-04-06T10:17:03;3.70;;;3.08;;
75062;SDS011;63981;51.052;13.754;2023-04-06T10:20:15;5.82;;;3.33;;
75062;SDS011;63981;51.052;13.754;2023-04-06T10:22:32;4.25;;;3.05;;
75062;SDS011;63981;51.052;13.754;2023-04-06T10:25:06;2.47;;;2.25;;
75062;SDS011;63981;51.052;13.754;2023-04-06T10:27:33;4.63;;;3.05;;
75062;SDS011;63981;51.052;13.754;2023-04-06T10:30:03;4.43;;;3.00;;
75062;SDS011;63981;51.052;13.754;2023-04-06T10:32:35;3.40;;;2.72;;
75062;SDS011;63981;51.052;13.754;2023-04-06T10:35:06;4.05;;;2.38;;
75062;SDS011;63981;51.052;13.754;2023-04-06T10:37:45;3.63;;;2.53;;
75062;SDS011;63981;51.052;13.754;2023-04-06T10:42:49;4.22;;;2.40;;
75062;SDS011;63981;51.052;13.754;2023-04-06T10:45:25;4.10;;;2.60;;
75062;SDS011;63981;51.052;13.754;2023-04-06T10:47:54;2.72;;;2.00;;
75062;SDS011;63981;51.052;13.754;2023-04-06T10:50:21;4.07;;;2.50;;
75062;SDS011;63981;51.052;13.754;2023-04-06T10:52:58;2.80;;;2.38;;
75062;SDS011;63981;51.052;13.754;2023-04-06T10:55:26;3.08;;;2.03;;
75062;SDS011;63981;51.052;13.754;2023-04-06T10:57:53;5.05;;;2.13;;
75062;SDS011;63981;51.052;13.754;2023-04-06T11:00:19;4.15;;;2.60;;
75062;SDS011;63981;51.052;13.754;2023-04-06T11:02:45;2.72;;;2.53;;
75062;SDS011;63981;51.052;13.754;2023-04-06T11:05:12;3.13;;;2.13;;
75062;SDS011;63981;51.052;13.754;2023-04-06T11:07:40;2.42;;;2.22;;
75062;SDS011;63981;51.052;13.754;2023-04-06T11:10:07;3.28;;;2.83;;
75062;SDS011;63981;51.052;13.754;2023-04-06T11:12:33;4.00;;;2.55;;
75062;SDS011;63981;51.052;13.754;2023-04-06T11:15:01;4.68;;;3.53;;
75062;SDS011;63981;51.052;13.754;2023-04-06T11:17:32;6.88;;;2.75;;
75062;SDS011;63981;51.052;13.754;2023-04-06T11:20:01;5.82;;;4.38;;
75062;SDS011;63981;51.052;13.754;2023-04-06T11:22:28;6.82;;;4.97;;
75062;SDS011;63981;51.052;13.754;2023-04-06T11:25:04;5.03;;;3.22;;
75062;SDS011;63981;51.052;13.754;2023-04-06T11:27:34;6.07;;;5.07;;
75062;SDS011;63981;51.052;13.754;2023-04-06T11:30:01;11.77;;;9.85;;
75062;SDS011;63981;51.052;13.754;2023-04-06T11:32:27;5.55;;;4.85;;
75062;SDS011;63981;51.052;13.754;2023-04-06T11:34:53;4.32;;;3.83;;
75062;SDS011;63981;51.052;13.754;2023-04-06T11:37:19;2.97;;;2.60;;
75062;SDS011;63981;51.052;13.754;2023-04-06T11:39:49;3.50;;;2.80;;
75062;SDS011;63981;51.052;13.754;2023-04-06T11:42:22;3.72;;;2.83;;
75062;SDS011;63981;51.052;13.754;2023-04-06T11:44:53;5.80;;;3.65;;
75062;SDS011;63981;51.052;13.754;2023-04-06T11:47:20;6.25;;;3.72;;
75062;SDS011;63981;51.052;13.754;2023-04-06T11:52:23;3.72;;;2.90;;
75062;SDS011;63981;51.052;13.754;2023-04-06T11:54:51;7.50;;;4.93;;
75062;SDS011;63981;51.052;13.754;2023-04-06T11:57:18;6.70;;;5.93;;
75062;SDS011;63981;51.052;13.754;2023-04-06T11:59:46;2.80;;;2.53;;
75062;SDS011;63981;51.052;13.754;2023-04-06T12:02:13;3.97;;;3.35;;
75062;SDS011;63981;51.052;13.754;2023-04-06T12:04:38;4.07;;;2.80;;
75062;SDS011;63981;51.052;13.754;2023-04-06T12:07:04;2.35;;;1.90;;
75062;SDS011;63981;51.052;13.754;2023-04-06T12:09:31;2.70;;;2.28;;
75062;SDS011;63981;51.052;13.754;2023-04-06T12:11:56;3.72;;;2.35;;
75062;SDS011;63981;51.052;13.754;2023-04-06T12:14:22;3.42;;;2.40;;
75062;SDS011;63981;51.052;13.754;2023-04-06T12:16:48;3.40;;;2.35;;
75062;SDS011;63981;51.052;13.754;2023-04-06T12:19:14;3.65;;;3.30;;
75062;SDS011;63981;51.052;13.754;2023-04-06T12:21:40;2.60;;;2.38;;
75062;SDS011;63981;51.052;13.754;2023-04-06T12:24:07;3.22;;;2.80;;
75062;SDS011;63981;51.052;13.754;2023-04-06T12:26:34;2.53;;;2.33;;
75062;SDS011;63981;51.052;13.754;2023-04-06T12:29:01;4.78;;;3.03;;
75062;SDS011;63981;51.052;13.754;2023-04-06T12:31:32;3.53;;;3.00;;
75062;SDS011;63981;51.052;13.754;2023-04-06T12:34:00;6.22;;;2.90;;
75062;SDS011;63981;51.052;13.754;2023-04-06T12:36:27;3.55;;;2.60;;
75062;SDS011;63981;51.052;13.754;2023-04-06T12:38:53;5.13;;;2.97;;
75062;SDS011;63981;51.052;13.754;2023-04-06T12:41:19;2.97;;;2.67;;
75062;SDS011;63981;51.052;13.754;2023-04-06T12:43:45;2.75;;;2.42;;
75062;SDS011;63981;51.052;13.754;2023-04-06T12:46:11;3.63;;;2.65;;
75062;SDS011;63981;51.052;13.754;2023-04-06T12:48:38;2.70;;;2.03;;
75062;SDS011;63981;51.052;13.754;2023-04-06T12:51:04;4.10;;;2.88;;
75062;SDS011;63981;51.052;13.754;2023-04-06T12:53:31;3.60;;;2.92;;
75062;SDS011;63981;51.052;13.754;2023-04-06T12:55:58;4.95;;;2.67;;
75062;SDS011;63981;51.052;13.754;2023-04-06T12:58:25;2.88;;;2.45;;
75062;SDS011;63981;51.052;13.754;2023-04-06T13:00:55;3.75;;;2.88;;
75062;SDS011;63981;51.052;13.754;2023-04-06T13:03:22;3.25;;;2.60;;
75062;SDS011;63981;51.052;13.754;2023-04-06T13:05:52;3.00;;;2.50;;
75062;SDS011;63981;51.052;13.754;2023-04-06T13:08:18;4.25;;;2.40;;
75062;SDS011;63981;51.052;13.754;2023-04-06T13:10:49;3.10;;;2.80;;
75062;SDS011;63981;51.052;13.754;2023-04-06T13:13:17;2.88;;;2.55;;
75062;SDS011;63981;51.052;13.754;2023-04-06T13:15:48;2.97;;;2.45;;
75062;SDS011;63981;51.052;13.754;2023-04-06T13:18:14;4.13;;;2.97;;
75062;SDS011;63981;51.052;13.754;2023-04-06T13:20:39;4.53;;;2.60;;
75062;SDS011;63981;51.052;13.754;2023-04-06T13:23:05;2.90;;;2.60;;
75062;SDS011;63981;51.052;13.754;2023-04-06T13:25:31;3.10;;;2.60;;
75062;SDS011;63981;51.052;13.754;2023-04-06T13:27:58;3.47;;;3.17;;
75062;SDS011;63981;51.052;13.754;2023-04-06T13:30:24;5.30;;;3.42;;
75062;SDS011;63981;51.052;13.754;2023-04-06T13:32:50;2.80;;;2.45;;
75062;SDS011;63981;51.052;13.754;2023-04-06T13:35:16;2.85;;;2.58;;
75062;SDS011;63981;51.052;13.754;2023-04-06T13:37:43;3.58;;;3.00;;
75062;SDS011;63981;51.052;13.754;2023-04-06T13:40:10;3.80;;;2.97;;
75062;SDS011;63981;51.052;13.754;2023-04-06T13:42:36;2.50;;;2.30;;
75062;SDS011;63981;51.052;13.754;2023-04-06T13:45:03;2.42;;;2.22;;
75062;SDS011;63981;51.052;13.754;2023-04-06T13:47:29;3.10;;;1.90;;
75062;SDS011;63981;51.052;13.754;2023-04-06T13:49:55;3.00;;;2.70;;
75062;SDS011;63981;51.052;13.754;2023-04-06T13:52:21;1.98;;;1.77;;
75062;SDS011;63981;51.052;13.754;2023-04-06T13:54:48;3.58;;;2.40;;
75062;SDS011;63981;51.052;13.754;2023-04-06T13:57:14;3.35;;;2.15;;
75062;SDS011;63981;51.052;13.754;2023-04-06T13:59:40;2.58;;;2.15;;
75062;SDS011;63981;51.052;13.754;2023-04-06T14:02:08;4.00;;;2.90;;
75062;SDS011;63981;51.052;13.754;2023-04-06T14:04:35;3.05;;;2.00;;
75062;SDS011;63981;51.052;13.754;2023-04-06T14:07:01;2.45;;;2.05;;
75062;SDS011;63981;51.052;13.754;2023-04-06T14:09:28;2.90;;;2.05;;
75062;SDS011;63981;51.052;13.754;2023-04-06T14:11:55;2.92;;;2.53;;
75062;SDS011;63981;51.052;13.754;2023-04-06T14:14:24;2.55;;;2.28;;
75062;SDS011;63981;51.052;13.754;2023-04-06T14:16:51;3.80;;;2.72;;
75062;SDS011;63981;51.052;13.754;2023-04-06T14:19:17;2.30;;;2.10;;
75062;SDS011;63981;51.052;13.754;2023-04-06T14:21:44;2.65;;;2.45;;
75062;SDS011;63981;51.052;13.754;2023-04-06T14:24:10;3.30;;;2.38;;
75062;SDS011;63981;51.052;13.754;2023-04-06T14:26:36;2.70;;;2.05;;
75062;SDS011;63981;51.052;13.754;2023-04-06T14:29:03;2.00;;;1.80;;
75062;SDS011;63981;51.052;13.754;2023-04-06T14:31:29;3.88;;;2.30;;
75062;SDS011;63981;51.052;13.754;2023-04-06T14:33:56;3.15;;;2.40;;
75062;SDS011;63981;51.052;13.754;2023-04-06T14:36:22;2.63;;;2.35;;
75062;SDS011;63981;51.052;13.754;2023-04-06T14:38:48;2.35;;;1.90;;
75062;SDS011;63981;51.052;13.754;2023-04-06T14:41:21;2.10;;;1.90;;
75062;SDS011;63981;51.052;13.754;2023-04-06T14:43:48;3.13;;;2.40;;
75062;SDS011;63981;51.052;13.754;2023-04-06T14:46:14;2.30;;;1.95;;
75062;SDS011;63981;51.052;13.754;2023-04-06T14:48:41;2.78;;;2.30;;
75062;SDS011;63981;51.052;13.754;2023-04-06T14:51:06;2.47;;;2.20;;